createdAt,value
2018-11-26T00:00:35.742Z,33.17
2018-11-26T00:03:09.262Z,33.77
2018-11-26T00:05:38.745Z,36.30
2018-11-26T00:08:09.276Z,32.17
2018-11-26T00:10:48.664Z,33.53
2018-11-26T00:13:17.990Z,33.17
2018-11-26T00:15:46.368Z,34.40
2018-11-26T00:18:14.691Z,36.07
2018-11-26T00:20:42.929Z,34.93
2018-11-26T00:23:11.160Z,32.40
2018-11-26T00:25:39.979Z,36.87
2018-11-26T00:28:08.704Z,38.27
2018-11-26T00:30:37.944Z,35.03
2018-11-26T00:33:07.662Z,34.07
2018-11-26T00:35:36.050Z,36.27
2018-11-26T00:38:04.247Z,30.73
2018-11-26T00:40:32.709Z,35.30
2018-11-26T00:43:02.519Z,35.73
2018-11-26T00:45:31.512Z,33.80
2018-11-26T00:47:59.861Z,35.13
2018-11-26T00:50:28.563Z,34.60
2018-11-26T00:52:56.593Z,36.47
2018-11-26T00:55:25.284Z,37.03
2018-11-26T00:57:55.006Z,35.67
2018-11-26T01:00:24.871Z,36.00
2018-11-26T01:02:53.797Z,34.23
2018-11-26T01:05:34.563Z,36.80
2018-11-26T01:08:03.393Z,36.67
2018-11-26T01:10:32.063Z,37.03
2018-11-26T01:13:01.757Z,35.77
2018-11-26T01:15:30.841Z,38.17
2018-11-26T01:17:59.863Z,35.10
2018-11-26T01:20:28.457Z,36.70
2018-11-26T01:22:57.373Z,36.33
2018-11-26T01:25:26.886Z,36.80
2018-11-26T01:27:55.054Z,36.00
2018-11-26T01:30:23.154Z,39.07
2018-11-26T01:32:51.287Z,39.50
2018-11-26T01:35:21.290Z,34.93
2018-11-26T01:37:49.750Z,40.00
2018-11-26T01:40:20.533Z,39.33
2018-11-26T01:42:48.938Z,37.57
2018-11-26T01:45:17.232Z,38.07
2018-11-26T01:47:47.157Z,35.67
2018-11-26T01:50:15.981Z,36.03
2018-11-26T01:52:44.567Z,37.47
2018-11-26T01:55:13.997Z,38.30
2018-11-26T01:57:42.339Z,39.23
2018-11-26T02:00:18.350Z,41.27
2018-11-26T02:02:47.313Z,39.30
2018-11-26T02:05:16.438Z,37.33
2018-11-26T02:07:45.378Z,35.60
2018-11-26T02:10:16.152Z,40.20
2018-11-26T02:12:44.214Z,37.13
2018-11-26T02:15:33.377Z,37.57
2018-11-26T02:18:03.926Z,39.30
2018-11-26T02:20:32.213Z,37.83
2018-11-26T02:23:01.015Z,37.10
2018-11-26T02:25:29.906Z,39.83
2018-11-26T02:27:58.090Z,40.70
2018-11-26T02:30:26.691Z,39.83
2018-11-26T02:32:55.502Z,43.10
2018-11-26T02:35:23.795Z,39.67
2018-11-26T02:37:53.419Z,41.00
2018-11-26T02:40:29.644Z,40.20
2018-11-26T02:42:58.694Z,39.40
2018-11-26T02:45:29.271Z,38.23
2018-11-26T02:47:57.645Z,40.93
2018-11-26T02:50:27.729Z,40.17
2018-11-26T02:52:57.808Z,41.07
2018-11-26T02:55:26.666Z,40.27
2018-11-26T02:57:55.637Z,40.50
2018-11-26T03:00:24.720Z,40.27
2018-11-26T03:02:54.525Z,36.87
2018-11-26T03:05:27.168Z,41.00
2018-11-26T03:07:55.378Z,37.60
2018-11-26T03:10:23.663Z,38.63
2018-11-26T03:12:51.945Z,39.33
2018-11-26T03:15:21.080Z,40.50
2018-11-26T03:17:50.809Z,39.70
2018-11-26T03:20:19.855Z,42.57
2018-11-26T03:22:48.651Z,39.40
2018-11-26T03:25:17.098Z,38.67
2018-11-26T03:27:45.774Z,38.53
2018-11-26T03:30:18.138Z,39.90
2018-11-26T03:32:46.952Z,39.80
2018-11-26T03:35:15.186Z,38.00
2018-11-26T03:37:43.501Z,38.07
2018-11-26T03:40:13.289Z,38.17
2018-11-26T03:42:42.909Z,37.67
2018-11-26T03:45:14.947Z,38.60
2018-11-26T03:47:43.922Z,38.27
2018-11-26T03:50:12.954Z,38.43
2018-11-26T03:52:43.713Z,35.40
2018-11-26T03:55:12.248Z,38.83
2018-11-26T03:57:40.604Z,37.33
2018-11-26T04:00:11.700Z,37.23
2018-11-26T04:02:39.926Z,39.77
2018-11-26T04:05:09.525Z,38.03
2018-11-26T04:07:37.652Z,35.13
2018-11-26T04:10:07.817Z,34.13
2018-11-26T04:12:36.166Z,36.00
2018-11-26T04:15:04.619Z,35.10
2018-11-26T04:17:33.463Z,34.43
2018-11-26T04:20:02.140Z,34.60
2018-11-26T04:22:30.655Z,34.13
2018-11-26T04:24:58.864Z,37.43
2018-11-26T04:27:27.889Z,34.83
2018-11-26T04:29:57.347Z,35.37
2018-11-26T04:32:26.901Z,32.70
2018-11-26T04:34:55.204Z,36.37
2018-11-26T04:37:24.522Z,31.57
2018-11-26T04:39:53.169Z,31.37
2018-11-26T04:42:21.250Z,30.87
2018-11-26T04:44:49.791Z,31.50
2018-11-26T04:47:18.103Z,32.23
2018-11-26T04:49:47.088Z,31.40
2018-11-26T04:52:15.878Z,33.20
2018-11-26T04:54:45.150Z,29.70
2018-11-26T04:57:13.337Z,28.90
2018-11-26T04:59:41.362Z,31.33
2018-11-26T05:02:09.773Z,29.53
2018-11-26T05:04:37.916Z,29.73
2018-11-26T05:07:06.175Z,32.37
2018-11-26T05:09:34.833Z,31.90
2018-11-26T05:12:03.061Z,31.57
2018-11-26T05:14:32.073Z,32.70
2018-11-26T05:17:01.468Z,31.60
2018-11-26T05:19:30.347Z,34.17
2018-11-26T05:21:58.668Z,30.20
2018-11-26T05:24:26.776Z,31.50
2018-11-26T05:26:55.211Z,31.47
2018-11-26T05:29:23.931Z,30.20
2018-11-26T05:31:53.899Z,31.23
2018-11-26T05:34:22.983Z,31.20
2018-11-26T05:36:53.728Z,31.60
2018-11-26T05:39:21.829Z,30.33
2018-11-26T05:41:51.903Z,32.03
2018-11-26T05:44:21.883Z,29.00
2018-11-26T05:46:50.764Z,31.17
2018-11-26T05:49:19.578Z,31.20
2018-11-26T05:51:49.052Z,31.97
2018-11-26T05:54:17.709Z,32.40
2018-11-26T05:56:46.104Z,31.30
2018-11-26T05:59:14.500Z,30.50
2018-11-26T06:01:42.583Z,30.23
2018-11-26T06:04:11.114Z,31.43
2018-11-26T06:06:39.411Z,32.90
2018-11-26T06:09:09.440Z,28.93
2018-11-26T06:11:39.066Z,30.00
2018-11-26T06:14:07.400Z,29.90
2018-11-26T06:16:36.785Z,29.73
2018-11-26T06:19:05.282Z,30.60
2018-11-26T06:21:35.119Z,28.50
2018-11-26T06:24:04.157Z,30.57
2018-11-26T06:26:33.322Z,28.57
2018-11-26T06:29:02.180Z,28.60
2018-11-26T06:31:31.286Z,30.53
2018-11-26T06:34:00.208Z,27.50
2018-11-26T06:36:28.864Z,29.17
2018-11-26T06:38:57.309Z,28.97
2018-11-26T06:41:26.251Z,30.37
2018-11-26T06:43:56.474Z,29.07
2018-11-26T06:46:26.062Z,29.73
2018-11-26T06:48:54.875Z,27.17
2018-11-26T06:51:23.792Z,26.70
2018-11-26T06:53:51.927Z,29.40
2018-11-26T06:56:20.660Z,27.90
2018-11-26T06:58:49.462Z,27.43
2018-11-26T07:01:17.912Z,27.93
2018-11-26T07:03:46.141Z,28.00
2018-11-26T07:06:16.445Z,28.00
2018-11-26T07:08:44.669Z,26.07
2018-11-26T07:11:14.848Z,26.63
2018-11-26T07:13:44.509Z,26.37
2018-11-26T07:16:13.796Z,27.47
2018-11-26T07:18:41.999Z,24.97
2018-11-26T07:21:10.338Z,23.27
2018-11-26T07:23:38.675Z,25.33
2018-11-26T07:26:07.126Z,26.17
2018-11-26T07:28:35.675Z,28.63
2018-11-26T07:31:05.766Z,28.70
2018-11-26T07:33:34.693Z,26.60
2018-11-26T07:36:03.098Z,27.23
2018-11-26T07:38:32.860Z,26.37
2018-11-26T07:41:02.894Z,23.80
2018-11-26T07:43:31.357Z,21.27
2018-11-26T07:46:00.193Z,22.97
2018-11-26T07:48:29.061Z,24.23
2018-11-26T07:50:57.188Z,24.70
2018-11-26T07:53:26.122Z,23.20
2018-11-26T07:55:55.306Z,23.20
2018-11-26T07:58:24.601Z,22.90
2018-11-26T08:00:55.269Z,21.60
2018-11-26T08:03:24.058Z,21.73
2018-11-26T08:05:53.000Z,20.83
2018-11-26T08:08:22.332Z,22.20
2018-11-26T08:10:51.762Z,20.97
2018-11-26T08:13:19.950Z,20.80
2018-11-26T08:15:49.128Z,21.40
2018-11-26T08:18:18.415Z,19.67
2018-11-26T08:20:46.912Z,20.97
2018-11-26T08:23:15.287Z,22.97
2018-11-26T08:25:45.148Z,21.37
2018-11-26T08:28:14.087Z,20.70
2018-11-26T08:30:55.591Z,21.63
2018-11-26T08:33:25.663Z,22.20
2018-11-26T08:35:59.942Z,21.57
2018-11-26T08:38:33.867Z,21.50
2018-11-26T08:41:13.467Z,20.57
2018-11-26T08:43:43.804Z,19.73
2018-11-26T08:46:18.723Z,20.80
2018-11-26T08:48:52.280Z,20.63
2018-11-26T08:51:21.388Z,21.40
2018-11-26T08:53:50.577Z,20.60
2018-11-26T08:56:20.014Z,22.30
2018-11-26T08:58:48.186Z,22.47
2018-11-26T09:01:18.732Z,22.37
2018-11-26T09:03:55.417Z,21.10
2018-11-26T09:06:23.801Z,23.37
2018-11-26T09:08:52.867Z,21.43
2018-11-26T09:11:21.976Z,21.83
2018-11-26T09:13:51.167Z,23.17
2018-11-26T09:16:21.199Z,23.50
2018-11-26T09:18:51.009Z,21.10
2018-11-26T09:21:20.735Z,22.40
2018-11-26T09:23:50.558Z,20.47
2018-11-26T09:26:19.390Z,21.80
2018-11-26T09:28:47.877Z,20.67
2018-11-26T09:31:17.980Z,20.03
2018-11-26T09:33:47.007Z,20.50
2018-11-26T09:36:16.203Z,21.50
2018-11-26T09:38:45.630Z,21.43
2018-11-26T09:41:15.623Z,29.07
2018-11-26T09:43:45.053Z,22.87
2018-11-26T09:46:19.677Z,20.07
2018-11-26T09:48:51.938Z,21.53
2018-11-26T09:51:24.178Z,20.57
2018-11-26T09:53:53.057Z,21.23
2018-11-26T09:56:21.490Z,20.37
2018-11-26T09:58:52.892Z,20.20
2018-11-26T10:01:24.217Z,20.50
2018-11-26T10:03:55.502Z,19.53
2018-11-26T10:06:25.666Z,19.63
2018-11-26T10:08:55.351Z,19.90
2018-11-26T10:11:28.201Z,19.30
2018-11-26T10:14:00.674Z,18.90
2018-11-26T10:16:29.895Z,17.97
2018-11-26T10:18:59.828Z,19.70
2018-11-26T10:21:35.032Z,18.67
2018-11-26T10:24:06.489Z,19.83
2018-11-26T10:26:37.094Z,18.80
2018-11-26T10:29:07.406Z,16.63
2018-11-26T10:31:36.445Z,19.87
2018-11-26T10:34:05.610Z,18.67
2018-11-26T10:36:35.242Z,18.67
2018-11-26T10:39:07.076Z,17.97
2018-11-26T10:41:36.709Z,18.03
2018-11-26T10:44:05.192Z,17.83
2018-11-26T10:46:35.899Z,18.27
2018-11-26T10:49:07.653Z,18.63
2018-11-26T10:51:36.818Z,17.03
2018-11-26T10:54:07.108Z,17.80
2018-11-26T10:56:37.939Z,16.10
2018-11-26T10:59:07.412Z,19.03
2018-11-26T11:01:37.952Z,18.17
2018-11-26T11:04:07.276Z,16.40
2018-11-26T11:06:38.216Z,16.83
2018-11-26T11:09:14.676Z,16.77
2018-11-26T11:11:43.769Z,18.47
2018-11-26T11:14:18.076Z,19.53
2018-11-26T11:16:48.009Z,20.97
2018-11-26T11:19:17.449Z,21.77
2018-11-26T11:21:46.995Z,23.57
2018-11-26T11:24:18.451Z,22.60
2018-11-26T11:26:48.368Z,24.23
2018-11-26T11:29:18.789Z,25.53
2018-11-26T11:31:48.196Z,24.77
2018-11-26T11:34:19.082Z,23.47
2018-11-26T11:36:47.520Z,23.53
2018-11-26T11:39:17.942Z,20.47
2018-11-26T11:41:48.027Z,22.93
2018-11-26T11:44:21.644Z,21.90
2018-11-26T11:46:52.820Z,22.67
2018-11-26T11:49:24.466Z,24.00
2018-11-26T11:51:54.375Z,25.77
2018-11-26T11:54:27.427Z,26.50
2018-11-26T11:56:58.901Z,25.83
2018-11-26T11:59:29.562Z,26.57
2018-11-26T12:01:58.455Z,25.40
2018-11-26T12:04:27.993Z,25.70
2018-11-26T12:06:58.047Z,24.93
2018-11-26T12:09:27.247Z,26.83
2018-11-26T12:11:58.319Z,23.70
2018-11-26T12:14:28.465Z,25.10
2018-11-26T12:16:57.227Z,27.90
2018-11-26T12:19:27.309Z,25.00
2018-11-26T12:21:58.539Z,25.67
2018-11-26T12:24:27.647Z,20.47
2018-11-26T12:27:01.341Z,20.77
2018-11-26T12:29:33.480Z,22.07
2018-11-26T12:32:03.509Z,21.00
2018-11-26T12:34:35.372Z,21.10
2018-11-26T12:37:04.842Z,26.03
2018-11-26T12:39:34.723Z,24.30
2018-11-26T12:42:05.066Z,22.70
2018-11-26T12:44:52.028Z,23.67
2018-11-26T12:47:22.520Z,23.13
2018-11-26T12:49:51.538Z,26.47
2018-11-26T12:52:22.313Z,26.40
2018-11-26T12:54:51.093Z,26.53
2018-11-26T12:57:22.504Z,27.23
2018-11-26T12:59:56.207Z,27.47
2018-11-26T13:02:25.805Z,25.83
2018-11-26T13:04:57.763Z,24.53
2018-11-26T13:07:27.847Z,28.17
2018-11-26T13:09:56.249Z,26.03
2018-11-26T13:15:01.430Z,26.93
2018-11-26T13:17:30.761Z,25.73
2018-11-26T13:20:01.263Z,24.33
2018-11-26T13:22:37.611Z,24.57
2018-11-26T13:25:09.269Z,27.67
2018-11-26T13:27:38.581Z,24.13
2018-11-26T13:30:18.098Z,24.73
2018-11-26T13:32:47.651Z,23.47
2018-11-26T13:35:18.959Z,25.67
2018-11-26T13:37:47.709Z,25.77
2018-11-26T13:40:18.970Z,25.40
2018-11-26T13:42:48.539Z,25.43
2018-11-26T13:45:24.638Z,26.27
2018-11-26T13:47:54.548Z,25.00
2018-11-26T13:50:25.239Z,23.53
2018-11-26T13:52:59.016Z,24.43
2018-11-26T13:55:29.685Z,25.50
2018-11-26T13:58:00.815Z,24.23
2018-11-26T14:00:30.089Z,26.37
2018-11-26T14:03:02.117Z,25.17
2018-11-26T14:05:36.622Z,25.20
2018-11-26T14:08:06.683Z,24.83
2018-11-26T14:10:38.802Z,24.53
2018-11-26T14:13:15.860Z,25.67
2018-11-26T14:15:47.781Z,22.40
2018-11-26T14:18:16.039Z,23.20
2018-11-26T14:20:45.671Z,23.07
2018-11-26T14:23:15.508Z,22.97
2018-11-26T14:25:46.693Z,25.70
2018-11-26T14:28:15.632Z,24.60
2018-11-26T14:30:46.184Z,23.83
2018-11-26T14:33:14.942Z,23.50
2018-11-26T14:35:44.656Z,23.27
2018-11-26T14:38:14.986Z,26.37
2018-11-26T14:40:50.470Z,25.87
2018-11-26T14:43:19.902Z,26.30
2018-11-26T14:45:49.862Z,24.60
2018-11-26T14:48:21.134Z,24.70
2018-11-26T14:50:51.046Z,24.00
2018-11-26T14:53:20.850Z,25.20
2018-11-26T14:55:50.206Z,25.67
2018-11-26T14:58:18.384Z,24.40
2018-11-26T15:00:47.818Z,23.47
2018-11-26T15:03:17.299Z,27.80
2018-11-26T15:05:46.208Z,26.03
2018-11-26T15:08:17.381Z,27.20
2018-11-26T15:10:46.508Z,28.23
2018-11-26T15:13:15.927Z,29.23
2018-11-26T15:15:44.601Z,27.00
2018-11-26T15:18:14.592Z,28.80
2018-11-26T15:20:43.622Z,29.00
2018-11-26T15:23:13.175Z,26.67
2018-11-26T15:25:43.974Z,28.10
2018-11-26T15:28:13.845Z,27.60
2018-11-26T15:30:45.097Z,29.87
2018-11-26T15:33:15.825Z,30.07
2018-11-26T15:35:44.770Z,28.53
2018-11-26T15:38:13.643Z,29.87
2018-11-26T15:40:44.407Z,29.17
2018-11-26T15:43:13.041Z,30.90
2018-11-26T15:45:43.058Z,26.80
2018-11-26T15:48:13.432Z,32.30
2018-11-26T15:50:43.275Z,30.03
2018-11-26T15:53:13.814Z,32.37
2018-11-26T15:55:44.492Z,29.57
2018-11-26T15:58:17.042Z,36.10
2018-11-26T16:00:46.635Z,33.87
2018-11-26T16:03:17.409Z,39.10
2018-11-26T16:05:46.732Z,32.60
2018-11-26T16:08:18.050Z,33.53
2018-11-26T16:10:48.276Z,33.17
2018-11-26T16:13:17.630Z,31.90
2018-11-26T16:15:45.948Z,32.63
2018-11-26T16:18:21.499Z,31.60
2018-11-26T16:20:50.648Z,31.30
2018-11-26T16:23:21.024Z,28.90
2018-11-26T16:25:50.395Z,30.13
2018-11-26T16:28:23.403Z,32.80
2018-11-26T16:30:54.450Z,34.73
2018-11-26T16:33:22.774Z,35.67
2018-11-26T16:35:53.118Z,35.23
2018-11-26T16:38:28.717Z,37.13
2018-11-26T16:40:59.019Z,35.60
2018-11-26T16:43:28.210Z,36.27
2018-11-26T16:45:59.670Z,37.20
2018-11-26T16:48:29.629Z,36.33
2018-11-26T16:50:59.657Z,38.17
2018-11-26T16:53:31.565Z,35.30
2018-11-26T16:56:01.361Z,35.10
2018-11-26T16:58:33.779Z,35.43
2018-11-26T17:01:03.417Z,37.63
2018-11-26T17:03:33.231Z,34.80
2018-11-26T17:06:06.198Z,36.20
2018-11-26T17:08:42.321Z,36.47
2018-11-26T17:11:12.246Z,36.13
2018-11-26T17:13:43.509Z,33.87
2018-11-26T17:16:21.959Z,33.53
2018-11-26T17:18:58.988Z,31.57
2018-11-26T17:21:29.909Z,31.57
2018-11-26T17:24:05.152Z,32.20
2018-11-26T17:26:41.715Z,31.30
2018-11-26T17:29:12.159Z,30.70
2018-11-26T17:34:19.787Z,31.10
2018-11-26T17:36:50.317Z,29.57
2018-11-26T17:39:21.818Z,32.00
2018-11-26T17:41:53.479Z,31.67
2018-11-26T17:44:24.819Z,30.80
2018-11-26T17:47:00.919Z,31.03
2018-11-26T17:49:35.362Z,28.37
2018-11-26T17:52:06.778Z,29.23
2018-11-26T17:54:36.155Z,29.33
2018-11-26T17:57:06.529Z,28.73
2018-11-26T17:59:36.008Z,27.93
2018-11-26T18:02:08.986Z,28.53
2018-11-26T18:04:39.262Z,29.73
2018-11-26T18:07:10.021Z,28.00
2018-11-26T18:09:42.639Z,27.60
2018-11-26T18:12:13.048Z,26.43
2018-11-26T18:14:44.292Z,28.37
2018-11-26T18:17:16.368Z,27.63
2018-11-26T18:19:48.548Z,27.10
2018-11-26T18:22:23.287Z,29.00
2018-11-26T18:24:54.300Z,27.77
2018-11-26T18:27:25.862Z,29.23
2018-11-26T18:29:57.007Z,26.20
2018-11-26T18:35:20.276Z,26.37
2018-11-26T18:37:52.750Z,26.53
2018-11-26T18:40:27.272Z,23.87
2018-11-26T18:43:03.737Z,26.17
2018-11-26T18:45:35.401Z,26.97
2018-11-26T18:48:04.589Z,25.03
2018-11-26T18:50:36.077Z,28.30
2018-11-26T18:53:07.191Z,27.40
2018-11-26T18:55:39.811Z,25.27
2018-11-26T18:58:10.468Z,24.73
2018-11-26T19:00:51.327Z,27.27
2018-11-26T19:03:29.266Z,25.57
2018-11-26T19:05:59.895Z,24.03
2018-11-26T19:08:31.819Z,25.90
2018-11-26T19:11:10.718Z,25.87
2018-11-26T19:13:51.242Z,25.13
2018-11-26T19:16:23.833Z,28.80
2018-11-26T19:18:54.452Z,26.67
2018-11-26T19:21:24.199Z,27.00
2018-11-26T19:23:59.823Z,27.23
2018-11-26T19:26:38.410Z,28.37
2018-11-26T19:29:16.211Z,26.43
2018-11-26T19:31:55.930Z,27.60
2018-11-26T19:34:22.185Z,25.10
2018-11-26T19:36:54.998Z,28.63
2018-11-26T19:39:35.563Z,28.57
2018-11-26T19:42:06.061Z,26.63
2018-11-26T19:44:37.650Z,28.53
2018-11-26T19:47:11.220Z,27.80
2018-11-26T19:49:47.134Z,28.60
2018-11-26T19:52:15.320Z,29.73
2018-11-26T19:54:44.187Z,28.50
2018-11-26T19:57:15.194Z,30.07
2018-11-26T19:59:47.228Z,31.60
2018-11-26T20:02:29.547Z,29.50
2018-11-26T20:05:07.060Z,30.40
2018-11-26T20:07:36.235Z,32.07
2018-11-26T20:10:12.723Z,33.17
2018-11-26T20:12:51.043Z,31.50
2018-11-26T20:15:37.741Z,32.63
2018-11-26T20:18:07.538Z,33.03
2018-11-26T20:20:46.055Z,34.60
2018-11-26T20:23:17.095Z,38.20
2018-11-26T20:25:55.121Z,35.20
2018-11-26T20:31:15.695Z,34.87
2018-11-26T20:33:45.974Z,35.33
2018-11-26T20:36:17.767Z,34.07
2018-11-26T20:38:54.185Z,36.80
2018-11-26T20:41:32.286Z,35.57
2018-11-26T20:44:05.253Z,35.97
2018-11-26T20:46:49.159Z,35.93
2018-11-26T20:51:53.646Z,34.33
2018-11-26T20:54:24.643Z,37.43
2018-11-26T20:56:57.593Z,35.03
2018-11-26T20:59:29.992Z,35.97
2018-11-26T21:02:02.549Z,35.40
2018-11-26T21:04:30.851Z,35.00
2018-11-26T21:07:02.229Z,38.73
2018-11-26T21:09:33.648Z,39.37
2018-11-26T21:12:04.284Z,35.57
2018-11-26T21:14:35.891Z,38.00
2018-11-26T21:19:49.712Z,33.10
2018-11-26T21:22:15.639Z,36.00
2018-11-26T21:24:48.470Z,34.50
2018-11-26T21:27:24.524Z,31.07
2018-11-26T21:29:54.336Z,31.03
2018-11-26T21:32:24.576Z,31.20
2018-11-26T21:34:54.090Z,31.07
2018-11-26T21:37:27.694Z,31.60
2018-11-26T21:40:02.178Z,30.63
2018-11-26T21:42:31.222Z,31.40
2018-11-26T21:44:59.722Z,29.87
2018-11-26T21:47:29.908Z,29.47
2018-11-26T21:50:00.949Z,29.23
2018-11-26T21:52:29.299Z,29.97
2018-11-26T21:54:59.054Z,28.80
2018-11-26T21:57:28.839Z,29.97
2018-11-26T21:59:58.940Z,31.47
2018-11-26T22:02:28.867Z,31.00
2018-11-26T22:04:58.007Z,30.50
2018-11-26T22:07:26.559Z,30.77
2018-11-26T22:09:55.851Z,29.73
2018-11-26T22:12:25.680Z,29.67
2018-11-26T22:14:54.784Z,29.67
2018-11-26T22:17:23.403Z,28.97
2018-11-26T22:19:52.443Z,29.43
2018-11-26T22:22:21.143Z,30.70
2018-11-26T22:24:52.438Z,28.80
2018-11-26T22:27:20.928Z,28.57
2018-11-26T22:29:50.108Z,31.00
2018-11-26T22:32:19.635Z,28.73
2018-11-26T22:34:48.645Z,31.73
2018-11-26T22:37:18.295Z,32.10
2018-11-26T22:39:47.697Z,30.73
2018-11-26T22:42:17.061Z,32.30
2018-11-26T22:44:46.563Z,33.10
2018-11-26T22:47:14.755Z,32.73
2018-11-26T22:49:43.276Z,31.57
2018-11-26T22:52:11.935Z,33.13
2018-11-26T22:54:41.033Z,28.50
2018-11-26T22:57:09.097Z,29.13
2018-11-26T22:59:38.111Z,27.37
2018-11-26T23:02:06.235Z,31.23
2018-11-26T23:04:35.905Z,29.60
2018-11-26T23:07:05.427Z,28.23
2018-11-26T23:09:34.196Z,29.00
2018-11-26T23:12:04.243Z,29.00
2018-11-26T23:14:32.808Z,29.67
2018-11-26T23:17:01.065Z,28.50
2018-11-26T23:19:30.785Z,27.60
2018-11-26T23:21:59.782Z,27.83
2018-11-26T23:24:28.056Z,28.23
2018-11-26T23:26:57.543Z,28.67
2018-11-26T23:29:26.715Z,31.67
2018-11-26T23:31:56.061Z,27.87
2018-11-26T23:34:25.484Z,29.70
2018-11-26T23:36:54.469Z,29.20
2018-11-26T23:39:22.711Z,27.00
2018-11-26T23:41:51.849Z,25.33
2018-11-26T23:44:21.454Z,26.27
2018-11-26T23:46:51.050Z,26.50
2018-11-26T23:49:20.576Z,24.47
2018-11-26T23:51:49.422Z,25.60
2018-11-26T23:54:18.522Z,27.07
2018-11-26T23:56:46.927Z,23.63
2018-11-26T23:59:15.754Z,24.97
